Time;durP1;ratioP1;P1;durP2;ratioP2;P2;SDS_P1;SDS_P2;PMS_P1;PMS_P2;Temp;Humidity;BMP_temperature;BMP_pressure;BME280_temperature;BME280_humidity;BME280_pressure;Samples;Min_cycle;Max_cycle;Signal;HPM_P1;HPM_P2
2022/04/26 03:37:50;;;;;;;17.00;11.40;;;;;;;8.17;75.33;99737.32;107042;1279;107857;-82
2022/04/26 03:40:22;;;;;;;14.80;12.70;;;;;;;8.14;75.57;99743.12;106750;1279;139065;-81
2022/04/26 03:42:54;;;;;;;13.20;11.40;;;;;;;8.11;75.47;99745.32;106191;1279;97875;-81
2022/04/26 03:45:26;;;;;;;13.00;10.90;;;;;;;8.05;75.51;99743.89;105785;1279;139791;-82
2022/04/26 03:47:57;;;;;;;12.70;11.10;;;;;;;8.03;75.55;99743.64;106125;1279;108782;-80
2022/04/26 03:50:30;;;;;;;13.80;11.30;;;;;;;8.02;75.84;99748.50;106824;1279;110831;-82
2022/04/26 03:53:02;;;;;;;15.60;11.40;;;;;;;8.01;75.83;99750.43;106098;1280;138736;-83
2022/04/26 03:55:35;;;;;;;14.80;11.80;;;;;;;8.01;75.88;99752.01;106016;1279;97970;-81
2022/04/26 03:58:08;;;;;;;16.80;13.00;;;;;;;8.05;75.87;99754.48;106960;1278;139375;-84
2022/04/26 04:00:40;;;;;;;16.40;12.60;;;;;;;8.08;76.02;99755.27;106295;1276;108726;-82
2022/04/26 04:03:12;;;;;;;16.60;13.40;;;;;;;8.11;75.93;99759.15;106401;1276;139250;-82
2022/04/26 04:05:44;;;;;;;21.40;14.70;;;;;;;8.08;75.80;99759.76;106439;1274;98244;-83
2022/04/26 04:08:16;;;;;;;17.60;13.20;;;;;;;8.06;75.83;99761.71;106945;1276;96365;-83
2022/04/26 04:10:48;;;;;;;16.10;12.70;;;;;;;8.04;75.79;99762.14;106753;1276;139067;-83
2022/04/26 04:13:20;;;;;;;16.90;13.40;;;;;;;8.02;76.03;99768.25;106878;1276;108026;-82
2022/04/26 04:15:52;;;;;;;16.90;13.00;;;;;;;8.04;75.96;99768.54;105940;1276;140182;-83
2022/04/26 04:21:14;;;;;;;16.80;13.60;;;;;;;8.06;76.05;99773.66;107352;1276;138478;-84
2022/04/26 04:23:46;;;;;;;16.40;12.90;;;;;;;8.09;76.03;99779.65;107054;1276;112357;-83
2022/04/26 04:26:18;;;;;;;19.40;14.80;;;;;;;8.11;76.05;99782.72;107185;1276;108404;-84
2022/04/26 04:28:50;;;;;;;21.30;14.20;;;;;;;8.12;75.96;99782.85;107336;1276;138599;-85
2022/04/26 04:31:22;;;;;;;16.00;13.70;;;;;;;8.11;75.90;99788.59;106233;1276;98284;-84
2022/04/26 04:33:54;;;;;;;18.40;13.90;;;;;;;8.10;75.93;99790.37;105899;1276;138209;-84
2022/04/26 04:36:27;;;;;;;17.90;12.70;;;;;;;8.07;75.85;99793.73;106103;1276;112044;-83
2022/04/26 04:38:59;;;;;;;16.00;11.90;;;;;;;8.05;75.97;99792.41;107252;1276;139573;-83
2022/04/26 04:41:36;;;;;;;14.20;11.70;;;;;;;8.04;76.10;99795.54;106404;1276;106106;-84
2022/04/26 04:44:09;;;;;;;16.00;11.40;;;;;;;8.03;76.08;99800.92;106025;1276;97894;-82
2022/04/26 04:46:41;;;;;;;15.60;11.80;;;;;;;8.03;76.15;99804.42;107386;1276;139179;-84
2022/04/26 04:49:13;;;;;;;15.90;13.10;;;;;;;8.02;76.17;99807.03;107489;1276;112355;-85
2022/04/26 04:51:46;;;;;;;17.10;13.80;;;;;;;8.05;76.07;99807.10;107401;1276;138339;-82
2022/04/26 04:54:18;;;;;;;17.70;14.70;;;;;;;8.06;76.17;99811.05;107478;1275;108795;-82
2022/04/26 04:56:50;;;;;;;19.90;14.60;;;;;;;8.07;76.24;99812.25;107399;1276;97852;-84
2022/04/26 04:59:27;;;;;;;19.70;14.50;;;;;;;8.08;76.02;99814.30;105985;1276;140074;-86
2022/04/26 05:02:00;;;;;;;16.80;14.10;;;;;;;8.08;76.02;99818.30;105927;1276;112452;-83
2022/04/26 05:04:33;;;;;;;18.00;14.40;;;;;;;8.08;76.09;99818.81;105963;1276;139060;-83
2022/04/26 05:07:06;;;;;;;16.80;13.70;;;;;;;8.12;76.09;99821.64;106858;1276;107937;-84
2022/04/26 05:09:38;;;;;;;17.60;14.90;;;;;;;8.16;76.14;99823.58;106621;1276;138544;-84
2022/04/26 05:12:11;;;;;;;19.30;14.60;;;;;;;8.22;76.17;99823.59;106087;1276;97930;-82
2022/04/26 05:14:43;;;;;;;21.60;15.10;;;;;;;8.26;76.11;99826.42;107504;1276;111934;-81
2022/04/26 05:17:15;;;;;;;18.40;14.30;;;;;;;8.26;76.05;99827.81;107283;1276;138594;-81
2022/04/26 05:19:47;;;;;;;19.00;14.40;;;;;;;8.23;75.96;99826.49;107511;1276;106376;-81
2022/04/26 05:22:19;;;;;;;17.40;12.60;;;;;;;8.24;75.98;99826.80;107238;1276;140318;-82
2022/04/26 05:24:54;;;;;;;17.10;14.00;;;;;;;8.27;75.99;99830.06;107409;1276;96034;-81
2022/04/26 05:27:29;;;;;;;16.40;12.50;;;;;;;8.31;76.07;99833.39;105735;1278;139340;-82
2022/04/26 05:30:01;;;;;;;18.00;13.20;;;;;;;8.34;76.05;99835.39;107384;1276;108919;-82
2022/04/26 05:32:33;;;;;;;19.60;13.70;;;;;;;8.37;76.01;99837.72;107458;1275;107825;-80
2022/04/26 05:35:06;;;;;;;20.50;13.90;;;;;;;8.38;75.84;99840.13;106481;1276;138771;-81
2022/04/26 05:37:38;;;;;;;20.30;14.40;;;;;;;8.32;75.73;99839.95;107346;1276;96205;-82
2022/04/26 05:40:12;;;;;;;19.10;13.90;;;;;;;8.28;75.75;99841.43;105967;1276;138058;-81
2022/04/26 05:42:44;;;;;;;16.50;12.40;;;;;;;8.22;75.44;99846.96;107387;1276;108773;-85
2022/04/26 05:45:16;;;;;;;15.40;12.80;;;;;;;8.18;75.62;99848.30;107229;1278;139836;-85
2022/04/26 05:47:48;;;;;;;16.80;12.70;;;;;;;8.18;75.72;99850.54;107363;1278;98400;-85
2022/04/26 05:50:20;;;;;;;17.20;13.60;;;;;;;8.19;75.67;99853.98;107497;1276;96293;-84
2022/04/26 05:52:52;;;;;;;16.20;13.30;;;;;;;8.24;75.94;99857.81;107334;1276;138072;-85
2022/04/26 05:55:24;;;;;;;17.90;14.50;;;;;;;8.32;75.93;99861.08;107472;1276;109041;-85
2022/04/26 05:57:56;;;;;;;19.20;14.40;;;;;;;8.37;75.89;99859.04;106387;1276;139295;-83
2022/04/26 06:00:29;;;;;;;18.10;14.30;;;;;;;8.37;75.64;99863.36;106228;1276;97809;-84
2022/04/26 06:03:01;;;;;;;17.10;13.80;;;;;;;8.40;75.64;99866.39;105909;1276;97825;-84
2022/04/26 06:05:34;;;;;;;18.80;13.50;;;;;;;8.42;75.64;99872.04;105716;1276;139171;-84
2022/04/26 06:08:08;;;;;;;16.80;13.80;;;;;;;8.43;75.57;99872.89;105840;1276;107287;-84
2022/04/26 06:10:41;;;;;;;18.70;13.90;;;;;;;8.45;75.61;99874.41;107214;1277;138797;-81
2022/04/26 06:13:13;;;;;;;17.40;13.40;;;;;;;8.43;75.32;99876.69;107357;1277;96446;-84
2022/04/26 06:15:45;;;;;;;19.70;14.30;;;;;;;8.45;75.36;99872.48;106178;1278;139061;-85
2022/04/26 06:18:17;;;;;;;19.90;13.80;;;;;;;8.46;75.29;99876.44;105939;1277;112432;-85
2022/04/26 06:20:49;;;;;;;18.70;14.20;;;;;;;8.44;75.37;99875.81;105892;1276;109370;-85
2022/04/26 06:23:21;;;;;;;17.90;13.70;;;;;;;8.46;75.29;99879.40;105872;1276;138764;-84
2022/04/26 06:25:53;;;;;;;14.20;11.30;;;;;;;8.43;75.11;99880.51;106147;1276;97963;-86
2022/04/26 06:28:26;;;;;;;12.90;10.60;;;;;;;8.42;74.92;99884.67;105965;1276;139361;-85
2022/04/26 06:30:58;;;;;;;11.90;9.60;;;;;;;8.40;74.72;99886.15;105999;1276;111326;-84
2022/04/26 06:33:30;;;;;;;11.80;9.80;;;;;;;8.38;74.94;99892.77;105922;1279;138903;-86
2022/04/26 06:36:02;;;;;;;10.90;9.50;;;;;;;8.37;74.62;99893.84;105953;1276;107843;-85
2022/04/26 06:38:35;;;;;;;13.40;10.80;;;;;;;8.35;74.65;99890.95;105944;1276;97930;-85
2022/04/26 06:41:07;;;;;;;13.10;10.90;;;;;;;8.34;74.76;99895.15;105809;1276;139552;-83
2022/04/26 06:43:40;;;;;;;13.00;10.80;;;;;;;8.37;75.02;99895.76;105895;1276;111541;-83
2022/04/26 06:46:12;;;;;;;16.40;13.30;;;;;;;8.44;74.79;99896.96;105764;1276;138880;-84
2022/04/26 06:48:48;;;;;;;13.90;11.40;;;;;;;8.51;74.77;99898.14;105835;1276;108421;-82
2022/04/26 06:51:19;;;;;;;;;;;;;;;8.57;74.59;99897.10;105902;1276;138834;-82
2022/04/26 06:53:51;;;;;;;15.50;11.20;;;;;;;8.60;74.60;99902.17;105876;1276;98036;-86
2022/04/26 06:56:23;;;;;;;12.90;10.40;;;;;;;8.70;74.80;99901.73;105817;1278;112456;-85
2022/04/26 06:58:57;;;;;;;12.40;10.60;;;;;;;8.84;74.66;99903.57;106047;1276;140167;-85
2022/04/26 07:01:29;;;;;;;14.40;11.90;;;;;;;8.95;74.42;99907.19;106074;1276;108777;-86
2022/04/26 07:04:11;;;;;;;14.10;12.10;;;;;;;9.03;74.14;99908.69;106004;1276;139540;-85
2022/04/26 07:06:43;;;;;;;14.70;12.40;;;;;;;9.10;73.94;99913.31;106105;1278;97849;-85
2022/04/26 07:09:16;;;;;;;14.50;12.50;;;;;;;9.14;73.53;99912.15;105883;1276;138977;-84
2022/04/26 07:11:48;;;;;;;17.50;14.10;;;;;;;9.14;73.35;99915.98;105977;1278;109338;-85
2022/04/26 07:14:20;;;;;;;15.70;13.70;;;;;;;9.12;73.34;99917.60;107013;1276;108804;-83
2022/04/26 07:16:52;;;;;;;16.40;13.80;;;;;;;9.10;73.39;99915.92;105714;1276;137990;-84
2022/04/26 07:19:25;;;;;;;15.40;12.50;;;;;;;9.07;73.35;99921.03;105880;1276;97718;-86
2022/04/26 07:21:57;;;;;;;14.90;12.20;;;;;;;9.07;73.29;99922.26;105912;1276;138633;-86
2022/04/26 07:24:36;;;;;;;16.90;12.90;;;;;;;9.10;73.37;99925.63;105974;1279;107979;-84
2022/04/26 07:27:08;;;;;;;17.70;12.70;;;;;;;9.12;73.35;99929.55;106017;1277;107182;-88
2022/04/26 07:29:43;;;;;;;20.00;14.20;;;;;;;9.14;73.40;99934.87;106004;1276;137512;-83
2022/04/26 07:32:16;;;;;;;18.70;14.90;;;;;;;9.17;73.40;99937.06;106057;1277;98052;-87
2022/04/26 07:34:48;;;;;;;16.40;12.60;;;;;;;9.20;73.48;99939.89;105791;1276;138241;-87
2022/04/26 07:37:22;;;;;;;19.40;14.70;;;;;;;9.22;73.22;99944.36;105879;1276;108518;-88
2022/04/26 07:39:54;;;;;;;20.00;15.50;;;;;;;9.25;73.41;99945.80;105785;1278;138387;-86
2022/04/26 07:42:26;;;;;;;19.90;14.70;;;;;;;9.32;73.56;99947.83;105859;1276;97880;-84
2022/04/26 07:44:58;;;;;;;20.60;14.90;;;;;;;9.36;73.53;99951.36;105905;1276;97713;-86
2022/04/26 07:47:31;;;;;;;19.80;15.10;;;;;;;9.36;73.13;99953.10;105755;1277;140479;-86
2022/04/26 07:50:04;;;;;;;21.50;15.50;;;;;;;9.35;73.17;99954.16;105735;1278;108179;-86
2022/04/26 07:52:36;;;;;;;21.40;15.50;;;;;;;9.37;72.87;99956.90;106050;1278;137757;-85
2022/04/26 07:55:10;;;;;;;19.50;15.20;;;;;;;9.40;72.95;99960.97;105888;1277;97922;-85
2022/04/26 07:57:42;;;;;;;21.10;15.30;;;;;;;9.45;72.89;99962.52;107278;1277;138166;-85
2022/04/26 08:00:16;;;;;;;24.70;16.60;;;;;;;9.50;72.70;99967.73;107170;1276;111215;-88
2022/04/26 08:02:48;;;;;;;24.00;18.40;;;;;;;9.56;72.83;99973.27;107424;1276;108977;-87
2022/04/26 08:05:20;;;;;;;26.50;18.70;;;;;;;9.61;72.67;99973.46;107372;1276;138648;-87
2022/04/26 08:07:52;;;;;;;23.60;16.60;;;;;;;9.63;72.54;99976.50;107058;1277;97940;-87
2022/04/26 08:10:25;;;;;;;21.20;15.60;;;;;;;9.68;72.34;99981.89;106673;1277;138518;-88
2022/04/26 08:12:58;;;;;;;17.90;12.20;;;;;;;9.77;72.13;99982.48;105761;1277;110946;-86
2022/04/26 08:15:30;;;;;;;17.80;12.10;;;;;;;9.84;71.73;99983.79;105938;1277;139594;-85
2022/04/26 08:18:02;;;;;;;16.60;13.10;;;;;;;9.91;71.58;99987.92;106062;1278;107830;-86
2022/04/26 08:20:34;;;;;;;17.70;13.10;;;;;;;9.95;71.47;99987.79;106042;1277;97881;-86
2022/04/26 08:23:07;;;;;;;17.60;13.90;;;;;;;9.98;71.49;99989.08;105850;1278;138278;-88
2022/04/26 08:28:28;;;;;;;20.70;14.90;;;;;;;10.04;71.04;99997.54;105585;1284;140189;-85
2022/04/26 08:31:01;;;;;;;19.10;14.40;;;;;;;10.00;70.88;99999.60;106150;1281;108924;-84
2022/04/26 08:33:35;;;;;;;18.30;14.40;;;;;;;9.96;71.06;99999.38;105366;1284;139329;-85
2022/04/26 08:36:07;;;;;;;20.40;14.00;;;;;;;9.96;70.99;100001.45;106863;1281;96675;-86
2022/04/26 08:38:41;;;;;;;16.80;12.60;;;;;;;9.97;71.03;100007.31;106841;1281;111513;-88
2022/04/26 08:41:15;;;;;;;20.60;13.30;;;;;;;10.03;71.04;100003.64;106574;1282;139409;-86
2022/04/26 08:43:47;;;;;;;15.10;11.10;;;;;;;10.13;70.95;100007.48;106789;1283;107415;-85
2022/04/26 08:46:19;;;;;;;15.00;11.70;;;;;;;10.27;70.82;100008.96;106720;1281;138818;-85
2022/04/26 08:51:41;;;;;;;13.30;11.20;;;;;;;10.45;70.46;100015.27;106646;1281;139792;-89
2022/04/26 08:54:14;;;;;;;13.70;11.40;;;;;;;10.59;70.37;100017.39;106841;1281;107904;-86
2022/04/26 08:56:46;;;;;;;12.20;9.70;;;;;;;10.72;70.17;100018.65;105898;1281;109165;-86
2022/04/26 08:59:20;;;;;;;13.40;10.00;;;;;;;10.76;69.53;100020.05;105627;1281;138500;-85
2022/04/26 09:02:13;;;;;;;15.80;10.70;;;;;;;10.72;69.16;100024.90;105771;1281;97979;-85
2022/04/26 09:04:46;;;;;;;12.90;10.70;;;;;;;10.65;69.12;100030.90;106289;1281;140312;-85
2022/04/26 09:07:32;;;;;;;12.40;10.80;;;;;;;10.58;69.18;100030.27;105966;1277;108417;-84
2022/04/26 09:10:11;;;;;;;13.40;10.80;;;;;;;10.55;69.06;100032.81;105831;1278;139185;-84
2022/04/26 09:13:08;;;;;;;12.20;10.60;;;;;;;10.56;69.18;100033.31;107541;1276;96039;-84
2022/04/26 09:15:44;;;;;;;12.90;10.50;;;;;;;10.59;69.15;100038.41;106969;1276;139399;-83
2022/04/26 09:18:22;;;;;;;12.00;9.80;;;;;;;10.63;69.18;100036.89;106790;1276;112480;-86
2022/04/26 09:20:56;;;;;;;12.60;10.10;;;;;;;10.67;69.17;100043.89;107357;1277;107203;-85
2022/04/26 09:23:30;;;;;;;14.90;11.10;;;;;;;10.75;69.08;100048.79;107283;1277;138503;-85
2022/04/26 09:26:10;;;;;;;13.80;11.30;;;;;;;10.83;68.82;100049.89;107393;1276;96153;-85
2022/04/26 09:28:45;;;;;;;14.70;11.10;;;;;;;10.88;68.53;100046.73;106876;1276;138266;-85
2022/04/26 09:31:23;;;;;;;13.50;11.50;;;;;;;10.89;68.14;100046.35;107512;1276;111539;-84
2022/04/26 09:33:57;;;;;;;14.60;11.20;;;;;;;10.90;68.42;100045.80;107345;1276;139270;-85
2022/04/26 09:36:31;;;;;;;15.30;12.60;;;;;;;10.95;68.48;100047.73;105825;1276;106213;-84
2022/04/26 09:39:04;;;;;;;17.50;12.90;;;;;;;10.99;68.68;100047.74;105984;1276;97922;-85
2022/04/26 09:41:38;;;;;;;14.90;13.10;;;;;;;11.08;68.53;100048.09;105821;1276;138699;-87
2022/04/26 09:44:11;;;;;;;16.90;13.50;;;;;;;11.20;68.56;100047.15;106571;1277;112880;-84
2022/04/26 09:46:53;;;;;;;15.40;12.50;;;;;;;11.30;68.19;100045.89;107424;1276;140316;-84
2022/04/26 09:49:26;;;;;;;15.40;13.00;;;;;;;11.34;67.72;100044.70;107392;1276;106770;-85
2022/04/26 09:51:59;;;;;;;16.00;13.60;;;;;;;11.29;67.25;100047.48;107291;1276;138665;-86
2022/04/26 09:54:31;;;;;;;15.90;13.40;;;;;;;11.26;67.30;100050.90;106508;1276;96101;-85
2022/04/26 09:57:08;;;;;;;16.40;13.20;;;;;;;11.33;67.45;100051.89;105902;1276;112701;-85
2022/04/26 10:00:01;;;;;;;15.90;13.00;;;;;;;11.34;66.97;100054.63;105812;1277;108886;-84
2022/04/26 10:02:43;;;;;;;14.20;11.90;;;;;;;11.32;66.96;100054.88;105815;1276;107846;-84
2022/04/26 10:05:20;;;;;;;16.90;12.00;;;;;;;11.31;66.96;100057.50;105784;1276;138878;-84
2022/04/26 10:07:54;;;;;;;17.40;12.40;;;;;;;11.32;66.96;100058.02;106469;1276;98315;-85
2022/04/26 10:10:28;;;;;;;15.60;13.40;;;;;;;11.30;66.88;100059.27;105754;1276;138743;-84
2022/04/26 10:15:52;;;;;;;15.30;12.50;;;;;;;11.36;66.72;100060.45;105957;1277;138815;-83
2022/04/26 10:18:43;;;;;;;15.10;13.50;;;;;;;11.40;66.52;100061.01;106368;1276;97828;-83
2022/04/26 10:21:49;;;;;;;15.40;12.70;;;;;;;11.39;66.19;100064.01;106064;1277;97927;-83
2022/04/26 10:24:25;;;;;;;17.50;13.10;;;;;;;11.43;66.42;100061.36;107089;1277;138543;-84
2022/04/26 10:27:22;;;;;;;16.70;13.30;;;;;;;11.54;66.19;100058.39;106143;1276;108553;-84
2022/04/26 10:29:55;;;;;;;18.20;14.60;;;;;;;11.64;65.97;100061.80;107424;1276;138347;-84
2022/04/26 10:32:35;;;;;;;16.70;12.70;;;;;;;11.71;66.05;100062.93;107024;1276;97956;-85
2022/04/26 10:35:31;;;;;;;14.70;12.30;;;;;;;11.75;65.61;100064.33;107403;1276;139106;-84
2022/04/26 10:38:15;;;;;;;15.30;12.30;;;;;;;11.80;65.40;100072.30;106790;1276;112357;-83
2022/04/26 10:41:11;;;;;;;17.20;13.10;;;;;;;11.93;65.20;100077.02;107444;1274;138831;-84
2022/04/26 10:44:28;;;;;;;13.80;11.90;;;;;;;12.09;64.77;100073.59;106840;1276;107733;-84
2022/04/26 10:47:35;;;;;;;16.30;13.20;;;;;;;12.15;64.29;100072.51;105489;1282;138649;-85
2022/04/26 10:50:12;;;;;;;17.00;13.90;;;;;;;12.13;64.22;100077.44;105768;1282;97889;-85
2022/04/26 10:52:50;;;;;;;18.00;13.80;;;;;;;12.14;64.26;100081.23;105573;1282;138936;-87
2022/04/26 10:55:28;;;;;;;18.70;14.90;;;;;;;12.18;64.10;100079.83;105687;1282;108666;-74
2022/04/26 10:58:02;;;;;;;16.20;14.40;;;;;;;12.22;64.06;100081.08;105410;1282;139336;-83
2022/04/26 11:00:37;;;;;;;16.60;13.50;;;;;;;12.31;63.98;100079.11;105614;1282;98022;-87
2022/04/26 11:03:09;;;;;;;14.90;13.20;;;;;;;12.44;63.71;100075.95;106594;1282;97761;-87
2022/04/26 11:05:41;;;;;;;17.30;13.20;;;;;;;12.59;63.54;100078.30;106795;1282;138493;-89
2022/04/26 11:08:14;;;;;;;17.60;14.00;;;;;;;12.74;63.33;100077.80;106127;1282;106005;-86
2022/04/26 11:11:07;;;;;;;16.50;14.00;;;;;;;12.87;62.80;100078.80;105560;1282;138527;-85
2022/04/26 11:13:39;;;;;;;17.00;14.20;;;;;;;12.99;62.67;100074.77;105605;1282;97974;-86
2022/04/26 11:16:14;;;;;;;18.70;14.80;;;;;;;13.08;62.28;100075.07;106742;1282;139346;-86
2022/04/26 11:18:47;;;;;;;17.30;13.80;;;;;;;13.16;62.19;100073.14;106184;1282;111853;-85
2022/04/26 11:21:20;;;;;;;15.90;13.70;;;;;;;13.28;61.96;100070.16;105571;1282;106827;-86
2022/04/26 11:29:51;;;;;;;16.00;12.80;;;;;;;13.37;61.04;100077.80;105989;1276;138928;-88
2022/04/26 11:32:35;;;;;;;14.50;12.30;;;;;;;13.38;60.82;100076.69;105974;1276;111133;-87
2022/04/26 11:35:09;;;;;;;15.10;12.40;;;;;;;13.46;60.83;100073.02;107423;1276;138789;-86
2022/04/26 11:37:49;;;;;;;14.50;11.90;;;;;;;13.63;60.64;100070.10;105970;1276;108975;-85
2022/04/26 11:40:26;;;;;;;14.40;11.60;;;;;;;13.73;60.34;100069.81;105897;1276;138886;-84
2022/04/26 11:43:06;;;;;;;15.80;11.20;;;;;;;13.85;59.98;100069.74;107402;1276;96237;-84
2022/04/26 11:45:39;;;;;;;13.60;11.10;;;;;;;13.98;59.54;100076.11;107451;1276;112517;-84
2022/04/26 11:48:13;;;;;;;13.50;10.10;;;;;;;14.11;59.02;100074.95;107261;1276;138982;-83
2022/04/26 11:50:47;;;;;;;13.00;10.40;;;;;;;14.20;58.65;100075.02;107448;1276;107760;-83
2022/04/26 11:53:21;;;;;;;12.70;9.80;;;;;;;14.34;58.34;100075.91;107273;1276;138767;-83
2022/04/26 11:55:56;;;;;;;12.30;10.00;;;;;;;14.43;57.69;100074.55;106706;1276;97863;-83
2022/04/26 11:58:36;;;;;;;13.60;10.40;;;;;;;14.46;57.38;100071.27;106038;1276;138649;-81
2022/04/26 12:01:11;;;;;;;11.20;9.40;;;;;;;14.49;57.29;100071.81;106893;1276;109892;-81
2022/04/26 12:03:49;;;;;;;12.10;9.80;;;;;;;14.57;57.16;100073.56;107426;1276;108807;-82
2022/04/26 12:06:26;;;;;;;10.60;9.00;;;;;;;14.65;56.77;100075.17;105931;1276;138138;-82
2022/04/26 12:09:00;;;;;;;10.50;9.00;;;;;;;14.71;56.10;100073.81;105940;1276;97865;-83
2022/04/26 12:11:36;;;;;;;9.90;8.60;;;;;;;14.81;56.10;100076.64;105834;1276;138225;-82
2022/04/26 12:14:12;;;;;;;9.80;8.50;;;;;;;14.96;55.78;100076.72;106182;1276;107987;-82
2022/04/26 12:16:47;;;;;;;11.90;8.90;;;;;;;15.08;55.35;100072.41;105937;1276;138403;-81
2022/04/26 12:19:19;;;;;;;11.80;8.90;;;;;;;15.17;54.89;100073.19;106043;1276;97842;-82
2022/04/26 12:21:54;;;;;;;11.60;9.10;;;;;;;15.20;54.55;100070.73;106114;1276;98027;-81
2022/04/26 12:24:29;;;;;;;9.60;8.10;;;;;;;15.23;54.30;100068.95;105943;1276;138730;-81
2022/04/26 12:27:03;;;;;;;9.70;8.60;;;;;;;15.33;54.28;100070.20;107356;1274;109269;-82
2022/04/26 12:29:43;;;;;;;8.70;7.80;;;;;;;15.46;53.96;100065.64;105905;1276;140206;-82
2022/04/26 12:32:17;;;;;;;10.70;8.00;;;;;;;15.49;53.30;100066.35;107441;1276;96079;-83
2022/04/26 12:34:53;;;;;;;11.50;8.30;;;;;;;15.45;52.79;100062.70;107370;1276;137393;-81
2022/04/26 12:37:26;;;;;;;9.20;8.10;;;;;;;15.43;53.24;100067.17;106811;1276;111451;-81
2022/04/26 12:40:00;;;;;;;11.70;9.30;;;;;;;15.43;52.88;100068.92;107431;1276;108087;-81
2022/04/26 12:42:36;;;;;;;10.00;8.50;;;;;;;15.42;52.68;100066.35;107275;1276;138363;-82
2022/04/26 12:45:21;;;;;;;8.60;7.10;;;;;;;15.37;52.25;100067.36;107394;1276;96332;-82
2022/04/26 12:51:17;;;;;;;21.60;14.60;;;;;;;15.18;51.80;100072.61;107360;1276;112507;-80
2022/04/26 12:53:50;;;;;;;20.80;15.20;;;;;;;15.23;52.11;100068.11;107194;1277;138321;-77
2022/04/26 12:56:25;;;;;;;11.70;8.50;;;;;;;15.27;51.79;100065.08;106734;1276;107894;-78
2022/04/26 12:58:58;;;;;;;9.10;7.80;;;;;;;15.26;51.38;100063.23;105762;1276;138400;-80
2022/04/26 13:01:31;;;;;;;10.00;8.10;;;;;;;15.29;51.60;100062.36;105964;1276;97936;-71
2022/04/26 13:04:03;;;;;;;11.80;8.40;;;;;;;15.32;51.47;100063.92;106036;1276;111323;-81
2022/04/26 13:06:36;;;;;;;12.60;9.20;;;;;;;15.27;51.50;100066.48;106122;1276;138131;-79
2022/04/26 13:09:28;;;;;;;12.20;8.90;;;;;;;15.22;51.62;100067.14;107428;1276;107664;-81
2022/04/26 13:12:00;;;;;;;10.10;9.00;;;;;;;15.07;51.54;100067.91;106516;1276;138087;-79
2022/04/26 13:14:32;;;;;;;11.00;8.50;;;;;;;14.97;51.64;100065.83;105983;1276;97829;-78
2022/04/26 13:17:16;;;;;;;10.90;9.00;;;;;;;14.85;51.64;100065.40;105794;1276;138499;-80
2022/04/26 13:19:48;;;;;;;10.00;8.80;;;;;;;14.73;51.81;100065.02;107370;1276;107743;-80
2022/04/26 13:22:21;;;;;;;11.00;9.00;;;;;;;14.59;51.86;100062.75;106221;1276;138540;-80
2022/04/26 13:24:53;;;;;;;9.70;8.20;;;;;;;14.48;52.02;100059.25;106462;1276;97857;-81
2022/04/26 13:27:25;;;;;;;11.20;7.90;;;;;;;14.41;51.84;100060.12;105928;1276;98057;-79
2022/04/26 13:29:57;;;;;;;9.00;7.20;;;;;;;14.37;51.68;100061.58;105836;1276;138074;-78
2022/04/26 13:32:30;;;;;;;11.20;8.50;;;;;;;14.37;51.69;100061.55;106001;1276;109185;-78
2022/04/26 13:35:05;;;;;;;9.10;7.40;;;;;;;14.38;51.99;100063.10;106665;1276;138647;-78
2022/04/26 13:37:38;;;;;;;8.30;7.20;;;;;;;14.39;51.65;100060.60;105938;1276;97837;-79
2022/04/26 13:40:12;;;;;;;8.60;6.80;;;;;;;14.39;51.59;100064.80;105783;1276;97880;-80
2022/04/26 13:42:43;;;;;;;8.80;6.80;;;;;;;14.40;51.59;100063.71;105895;1276;137831;-79
2022/04/26 13:45:16;;;;;;;9.50;7.60;;;;;;;14.37;51.53;100068.03;105879;1276;109031;-79
2022/04/26 13:47:48;;;;;;;10.50;7.50;;;;;;;14.37;51.59;100069.81;105828;1276;138615;-79
2022/04/26 13:50:20;;;;;;;8.70;7.30;;;;;;;14.35;51.43;100068.48;105892;1276;96828;-80
2022/04/26 13:52:52;;;;;;;9.00;7.60;;;;;;;14.33;51.35;100069.79;105828;1276;139013;-80
2022/04/26 13:55:26;;;;;;;8.10;7.10;;;;;;;14.32;51.33;100070.20;105948;1276;112648;-80
2022/04/26 13:57:59;;;;;;;8.60;7.30;;;;;;;14.30;51.19;100069.28;107495;1276;106799;-80
2022/04/26 14:00:34;;;;;;;8.40;7.50;;;;;;;14.23;51.08;100069.79;106298;1276;138028;-79
2022/04/26 14:03:07;;;;;;;9.30;7.80;;;;;;;14.18;51.29;100071.77;105867;1276;97844;-80
2022/04/26 14:05:39;;;;;;;10.10;8.00;;;;;;;14.21;51.47;100069.38;105809;1276;138437;-78
2022/04/26 14:08:12;;;;;;;8.60;7.40;;;;;;;14.26;51.43;100072.62;106092;1276;112533;-79
2022/04/26 14:10:44;;;;;;;9.10;7.40;;;;;;;14.31;51.78;100071.80;105785;1276;138366;-77
2022/04/26 14:13:16;;;;;;;9.60;8.00;;;;;;;14.39;51.83;100072.66;105926;1276;109172;-78
2022/04/26 14:24:17;;;;;;;14.50;9.80;;;;;;;14.54;51.65;100073.31;107107;1276;274647;-78
2022/04/26 14:26:50;;;;;;;9.30;7.20;;;;;;;14.52;51.32;100069.41;107285;1276;108596;-79
2022/04/26 14:29:22;;;;;;;9.00;7.50;;;;;;;14.49;51.45;100071.98;105955;1276;138479;-78
2022/04/26 14:31:54;;;;;;;9.10;7.40;;;;;;;14.50;51.45;100070.73;107432;1276;96047;-76
2022/04/26 14:34:26;;;;;;;9.30;7.60;;;;;;;14.44;51.28;100074.00;107308;1276;139616;-78
2022/04/26 14:36:59;;;;;;;10.40;8.80;;;;;;;14.35;51.08;100070.40;106505;1275;109095;-80
2022/04/26 14:39:32;;;;;;;8.90;7.40;;;;;;;14.26;51.28;100072.59;105878;1276;107860;-80
2022/04/26 14:42:05;;;;;;;10.60;8.50;;;;;;;14.16;51.24;100072.75;105872;1276;138262;-81
2022/04/26 14:44:37;;;;;;;9.50;7.40;;;;;;;14.09;51.71;100076.10;107481;1275;95856;-81
2022/04/26 14:47:09;;;;;;;10.10;7.60;;;;;;;14.00;51.62;100075.82;107133;1276;137832;-80
2022/04/26 14:49:42;;;;;;;10.50;8.00;;;;;;;13.96;51.99;100075.68;105979;1276;107847;-82
2022/04/26 14:52:18;;;;;;;8.80;7.80;;;;;;;13.92;51.95;100075.54;105949;1276;108770;-81
2022/04/26 14:55:01;;;;;;;;;;;;;;;13.83;51.94;100077.35;107278;1276;137911;-82
2022/04/26 14:57:33;;;;;;;10.40;7.70;;;;;;;13.75;52.04;100076.85;106165;1276;96757;-82
2022/04/26 15:00:11;;;;;;;8.60;7.70;;;;;;;13.73;52.35;100080.66;105842;1276;139032;-83
2022/04/26 15:02:43;;;;;;;10.90;7.70;;;;;;;13.67;52.43;100078.85;105876;1276;108874;-80
2022/04/26 15:05:16;;;;;;;9.70;7.80;;;;;;;13.57;52.51;100087.52;105724;1274;138482;-82
2022/04/26 15:10:37;;;;;;;11.10;9.20;;;;;;;13.37;52.78;100091.07;105988;1276;97846;-81
2022/04/26 15:18:50;;;;;;;8.50;7.50;;;;;;;13.06;53.19;100097.30;105829;1276;139189;-82
2022/04/26 15:21:23;;;;;;;11.40;8.20;;;;;;;12.95;53.85;100100.41;105862;1276;97863;-82
2022/04/26 15:23:59;;;;;;;9.90;8.00;;;;;;;12.88;53.94;100103.91;105865;1275;138122;-81
2022/04/26 15:26:32;;;;;;;11.20;7.70;;;;;;;12.81;54.36;100104.03;105946;1276;112506;-80
2022/04/26 15:29:05;;;;;;;9.00;8.10;;;;;;;12.73;55.05;100107.15;105864;1276;138662;-80
2022/04/26 15:31:38;;;;;;;9.50;8.10;;;;;;;12.66;55.29;100109.38;105899;1276;107881;-81
2022/04/26 15:34:11;;;;;;;10.80;7.80;;;;;;;12.59;55.66;100111.27;105937;1276;97881;-82
2022/04/26 15:36:43;;;;;;;9.80;8.30;;;;;;;12.53;55.79;100113.96;105725;1276;138807;-81
2022/04/26 15:39:15;;;;;;;9.20;7.60;;;;;;;12.48;56.18;100112.08;105926;1276;112239;-81
2022/04/26 15:41:47;;;;;;;11.00;8.10;;;;;;;12.43;56.39;100110.36;105797;1276;138014;-82
2022/04/26 15:44:19;;;;;;;9.70;8.00;;;;;;;12.40;56.68;100109.44;105884;1276;107566;-83
2022/04/26 15:46:54;;;;;;;9.50;7.70;;;;;;;12.37;56.73;100111.29;105890;1276;139565;-83
2022/04/26 15:49:28;;;;;;;10.30;7.70;;;;;;;12.33;56.70;100104.87;105901;1276;97853;-83
2022/04/26 15:52:00;;;;;;;10.70;7.60;;;;;;;12.29;56.73;100106.92;105994;1275;113182;-82
2022/04/26 15:54:32;;;;;;;9.20;7.50;;;;;;;12.26;56.54;100106.55;105843;1276;138437;-84